Wetter & Webcam

Wetterdaten Diepholz (ETND)

METAR
Data not available. Military Control Zone (MCTR) is not permanently active (HX).

Sunrise (SR) / Sunset (SS)
07:21 / 15:55 UTC

Wetterdaten Bremen (EDDW)

METAR
METAR text: EDDW 230320Z 13006KT 9000 NSC M06/M08 Q1001 Conditions at: EDDW (BREMEN , DE) observed 0320 UTC 23 January 2019 Temperature: -6.0°C (21°F) Dewpoint: -8.0°C (18°F) [RH = 86%] Pressure (altimeter): 29.56 inches Hg (1001.0 mb) Winds: from the SE (130 degrees) at 7 MPH (6 knots; 3.1 m/s) Visibility: 6 miles ( 9 km) Ceiling: at least 12,000 feet AGL Clouds: sky clear below 12,000 feet AGL Weather: no significant weather observed at this time Forecast for: EDDW (BREMEN , DE) Text: EDDW 222300Z 2300/2324 11007KT 9999 FEW025 Forecast period: 0000 UTC 23 January 2019 to 0000 UTC 24 January 2019 Forecast type: FROM: standard forecast or significant change Winds: from the ESE (110 degrees) at 8 MPH (7 knots; 3.6 m/s) Visibility: 6 or more miles 10+ km) Ceiling: at least 12,000 feet AGL Clouds: few clouds at 2500 feet AGL Weather: no significant weather forecast for this period

Copyright © 2017 Flugplatz Diepholz-Dümmerland

© 2017 Flugplatz Diepholz-Dümmerland